Time;durP1;ratioP1;P1;durP2;ratioP2;P2;SDS_P1;SDS_P2;PMS_P1;PMS_P2;Temp;Humidity;BMP_temperature;BMP_pressure;BME280_temperature;BME280_humidity;BME280_pressure;Samples;Min_cycle;Max_cycle;Signal;HPM_P1;HPM_P2
2023/08/04 00:08:29;;;;;;;11.45;6.00;;;;;;;27.95;49.43;101495.16;20993716;28;20479;-77
2023/08/04 00:18:30;;;;;;;9.60;6.47;;;;;;;27.96;49.42;101506.09;20995966;28;20043;-77
2023/08/04 00:28:31;;;;;;;12.65;6.15;;;;;;;28.08;49.50;101542.13;20994205;28;20074;-76
2023/08/04 00:38:33;;;;;;;10.05;6.18;;;;;;;28.12;49.50;101527.09;20994624;28;20086;-78
2023/08/04 00:48:40;;;;;;;10.68;5.72;;;;;;;27.97;49.36;101532.25;20993209;28;20040;-77
2023/08/04 00:58:42;;;;;;;7.45;5.05;;;;;;;28.09;49.42;101555.06;20999247;28;20044;-79
2023/08/04 01:08:58;;;;;;;8.00;5.47;;;;;;;28.07;49.48;101562.97;21013009;28;20048;-76
2023/08/04 01:19:00;;;;;;;7.57;4.53;;;;;;;28.01;49.66;101553.81;21014808;28;20025;-77
2023/08/04 01:29:05;;;;;;;11.80;5.13;;;;;;;28.14;49.27;101568.19;21012996;28;20025;-77
2023/08/04 01:39:07;;;;;;;5.70;4.50;;;;;;;28.10;49.51;101556.72;21005310;28;20042;-77
2023/08/04 01:49:09;;;;;;;8.25;4.57;;;;;;;28.06;49.40;101555.69;20986222;28;20561;-77
2023/08/04 01:59:11;;;;;;;9.98;4.78;;;;;;;28.05;49.20;101548.41;21006520;28;20082;-77
2023/08/04 02:09:13;;;;;;;7.45;3.83;;;;;;;28.12;49.31;101554.41;21009158;28;20032;-76
2023/08/04 02:19:27;;;;;;;5.18;4.20;;;;;;;28.12;49.37;101558.06;21007126;28;20047;-76
2023/08/04 02:29:28;;;;;;;6.40;4.25;;;;;;;27.98;49.48;101536.72;21002234;28;20039;-78
2023/08/04 02:39:34;;;;;;;8.45;4.35;;;;;;;28.10;49.37;101535.03;21000204;28;20346;-76
2023/08/04 02:49:36;;;;;;;6.03;4.10;;;;;;;28.16;49.42;101534.91;20999360;28;20024;-77
2023/08/04 02:59:37;;;;;;;4.55;3.88;;;;;;;28.20;49.37;101528.34;20978290;28;20384;-76
2023/08/04 03:09:38;;;;;;;5.68;4.07;;;;;;;28.18;49.28;101530.66;20995853;28;20122;-76
2023/08/04 03:19:40;;;;;;;5.15;3.45;;;;;;;28.10;49.54;101523.78;20993758;28;20044;-77
2023/08/04 03:29:41;;;;;;;5.65;3.63;;;;;;;28.15;49.46;101536.06;20993462;28;20032;-76
2023/08/04 03:39:44;;;;;;;6.53;3.63;;;;;;;28.16;49.21;101521.69;20923852;28;2127120;-75
2023/08/04 03:49:50;;;;;;;5.28;3.67;;;;;;;28.16;49.37;101521.69;20997551;28;20694;-75
2023/08/04 03:59:52;;;;;;;5.70;4.00;;;;;;;28.05;49.51;101487.34;20996755;28;20070;-78
2023/08/04 04:09:54;;;;;;;4.85;3.65;;;;;;;28.11;49.38;101519.81;20996205;28;20036;-74
2023/08/04 04:19:55;;;;;;;4.25;3.60;;;;;;;27.84;49.36;101467.25;20994970;28;20537;-74
2023/08/04 04:29:57;;;;;;;5.07;3.83;;;;;;;28.15;49.37;101508.75;20994450;28;20029;-73
2023/08/04 04:39:59;;;;;;;6.60;3.58;;;;;;;27.99;49.34;101471.69;21007856;28;20037;-76
2023/08/04 04:50:01;;;;;;;3.97;3.40;;;;;;;28.03;49.34;101495.25;20992469;28;20484;-74
2023/08/04 05:00:03;;;;;;;4.97;3.95;;;;;;;28.16;49.63;101516.06;21009646;28;20082;-75
2023/08/04 05:10:05;;;;;;;4.90;3.90;;;;;;;28.18;49.55;101505.34;21006964;28;20074;-76
2023/08/04 05:20:07;;;;;;;4.90;4.07;;;;;;;28.12;49.19;101493.34;21006524;28;20090;-76
2023/08/04 05:30:18;;;;;;;4.97;4.05;;;;;;;28.17;49.30;101492.38;21009010;28;20036;-75
2023/08/04 05:40:23;;;;;;;5.53;4.38;;;;;;;28.20;49.48;101476.88;21048945;28;20048;-76
2023/08/04 05:50:24;;;;;;;4.75;4.22;;;;;;;28.13;49.53;101480.09;21064575;28;20146;-77
2023/08/04 06:00:25;;;;;;;5.88;4.30;;;;;;;28.06;49.41;101476.91;21008003;28;20033;-77
2023/08/04 06:10:27;;;;;;;5.18;4.40;;;;;;;28.09;49.55;101465.03;21003700;28;20028;-77
2023/08/04 06:20:28;;;;;;;6.32;5.28;;;;;;;28.16;49.51;101476.66;21002680;28;20075;-79
2023/08/04 06:30:31;;;;;;;5.38;4.45;;;;;;;28.04;49.33;101462.31;21001109;28;20040;-78
2023/08/04 06:40:35;;;;;;;5.82;4.60;;;;;;;28.20;49.42;101469.25;21001255;28;20045;-77
2023/08/04 06:50:39;;;;;;;6.05;5.10;;;;;;;28.14;49.29;101448.03;21000754;28;20546;-77
2023/08/04 07:00:41;;;;;;;5.13;4.57;;;;;;;28.17;49.33;101463.41;20998907;28;20020;-77
2023/08/04 07:10:44;;;;;;;5.80;5.07;;;;;;;27.72;49.38;101381.78;20996871;28;20392;-79
2023/08/04 07:20:46;;;;;;;6.28;5.13;;;;;;;28.22;49.34;101432.34;20996860;28;20028;-77
2023/08/04 07:30:47;;;;;;;6.35;5.22;;;;;;;28.08;49.45;101407.06;20995451;28;20048;-80
2023/08/04 07:40:49;;;;;;;5.97;5.38;;;;;;;28.15;49.50;101418.72;20912634;28;20088;-80
2023/08/04 07:50:51;;;;;;;6.57;5.30;;;;;;;28.10;49.53;101410.41;20911021;28;20562;-78
2023/08/04 08:00:53;;;;;;;5.60;5.00;;;;;;;28.11;49.53;101420.50;20910954;28;20083;-76
2023/08/04 08:10:55;;;;;;;6.88;5.47;;;;;;;28.17;49.35;101433.28;20918653;28;20037;-77
2023/08/04 08:20:58;;;;;;;6.97;6.22;;;;;;;28.09;49.67;101415.22;20927917;28;20041;-77
2023/08/04 08:31:00;;;;;;;6.50;5.60;;;;;;;28.13;49.46;101412.56;20909172;28;20041;-77
2023/08/04 08:41:04;;;;;;;7.32;5.80;;;;;;;28.04;49.70;101411.66;21007669;28;20041;-76
2023/08/04 08:51:11;;;;;;;7.18;6.07;;;;;;;28.13;49.44;101404.13;21006319;28;20049;-79
2023/08/04 09:01:14;;;;;;;6.28;5.43;;;;;;;28.16;49.18;101411.94;21006219;28;20040;-78
2023/08/04 09:11:18;;;;;;;7.18;6.40;;;;;;;28.06;49.40;101392.50;21004534;28;20492;-78
2023/08/04 09:21:22;;;;;;;7.07;6.28;;;;;;;28.13;49.52;101392.88;21004186;28;20029;-75
2023/08/04 09:31:23;;;;;;;7.07;5.93;;;;;;;28.08;49.60;101407.91;21064576;28;20116;-77
2023/08/04 09:41:25;;;;;;;7.13;5.95;;;;;;;28.10;49.32;101393.53;21087581;28;20383;-78
2023/08/04 09:51:27;;;;;;;7.70;6.20;;;;;;;28.08;49.54;101398.63;21087135;28;20028;-78
2023/08/04 10:01:29;;;;;;;7.20;5.72;;;;;;;28.13;49.58;101409.75;21085360;28;20039;-77
2023/08/04 10:11:30;;;;;;;6.20;5.47;;;;;;;28.03;49.60;101401.56;21083653;28;20438;-77
2023/08/04 10:21:38;;;;;;;6.82;6.13;;;;;;;28.02;49.68;101402.72;21084413;28;20036;-75
2023/08/04 10:31:58;;;;;;;7.30;6.22;;;;;;;28.09;49.45;101397.50;21081590;28;20040;-76
2023/08/04 10:42:03;;;;;;;8.25;6.90;;;;;;;28.12;49.42;101397.69;21081407;28;20089;-75
2023/08/04 10:52:04;;;;;;;8.13;6.75;;;;;;;28.03;49.51;101379.06;21080946;28;20380;-76
2023/08/04 11:02:06;;;;;;;6.82;5.85;;;;;;;27.93;49.53;101359.63;21080940;28;20066;-77
2023/08/04 11:12:11;;;;;;;7.53;6.43;;;;;;;27.85;49.72;101345.16;21079803;28;20044;-76
2023/08/04 11:22:14;;;;;;;7.97;6.43;;;;;;;27.98;49.74;101373.56;21064632;28;20035;-76
2023/08/04 11:32:21;;;;;;;8.43;7.00;;;;;;;28.03;49.78;101381.88;21078766;28;20048;-74
2023/08/04 11:42:22;;;;;;;7.40;6.30;;;;;;;28.09;49.65;101380.63;21077189;28;20101;-73
2023/08/04 11:52:24;;;;;;;7.80;6.32;;;;;;;28.03;49.63;101377.09;21077617;28;20048;-80
2023/08/04 12:02:26;;;;;;;7.55;6.15;;;;;;;27.97;49.67;101364.31;21088291;28;20483;-83
2023/08/04 12:12:40;;;;;;;8.95;6.78;;;;;;;28.05;49.73;101368.34;21072300;28;20089;-83
2023/08/04 12:22:44;;;;;;;8.15;6.85;;;;;;;28.03;49.23;101365.00;21085296;28;20047;-81
2023/08/04 12:32:46;;;;;;;7.82;6.78;;;;;;;28.05;49.55;101382.41;21092011;28;20545;-81
2023/08/04 12:42:47;;;;;;;7.80;6.35;;;;;;;27.98;49.57;101367.94;21089572;28;20450;-84
2023/08/04 12:52:49;;;;;;;7.05;6.20;;;;;;;28.05;49.47;101379.59;21090229;28;20407;-84
2023/08/04 13:02:56;;;;;;;7.97;6.75;;;;;;;28.05;49.62;101399.28;21105799;28;20387;-83
2023/08/04 13:12:58;;;;;;;7.00;6.30;;;;;;;28.02;49.88;101385.84;21117701;28;20044;-85
2023/08/04 13:22:59;;;;;;;7.93;6.57;;;;;;;28.02;49.58;101383.03;21108800;28;20032;-87
2023/08/04 13:33:01;;;;;;;6.93;6.07;;;;;;;28.04;49.60;101361.03;21119712;28;20031;-81
2023/08/04 13:43:03;;;;;;;8.10;6.55;;;;;;;27.98;49.59;101376.38;21134898;28;20065;-83
2023/08/04 13:53:04;;;;;;;7.68;6.88;;;;;;;28.08;49.46;101384.56;21135670;28;20085;-84
2023/08/04 14:03:06;;;;;;;7.57;6.78;;;;;;;28.06;49.63;101386.88;21118716;28;20043;-84
2023/08/04 14:13:07;;;;;;;8.10;7.10;;;;;;;28.08;49.29;101367.69;21108889;28;20077;-84
2023/08/04 14:23:09;;;;;;;7.47;6.57;;;;;;;28.12;49.35;101368.72;21114846;28;20020;-82
2023/08/04 14:33:10;;;;;;;7.80;6.63;;;;;;;28.08;49.48;101374.13;21115315;28;20040;-85
2023/08/04 14:43:11;;;;;;;7.75;6.80;;;;;;;28.04;49.56;101361.88;21114802;28;20044;-83
2023/08/04 14:53:13;;;;;;;6.97;6.10;;;;;;;28.10;49.52;101371.03;21109522;28;20568;-78
2023/08/04 15:03:14;;;;;;;7.68;6.57;;;;;;;28.04;49.80;101377.91;21124499;28;20044;-82
2023/08/04 15:13:16;;;;;;;7.70;6.85;;;;;;;27.88;49.48;101334.44;21178745;28;20028;-80
2023/08/04 15:23:18;;;;;;;7.88;6.40;;;;;;;28.08;49.52;101359.25;21129295;28;20116;-82
2023/08/04 15:33:19;;;;;;;8.35;7.18;;;;;;;28.06;49.55;101365.19;21120290;28;20487;-85
2023/08/04 15:43:20;;;;;;;7.85;6.82;;;;;;;27.93;49.73;101351.19;21119902;28;20036;-83
2023/08/04 15:53:22;;;;;;;7.72;6.72;;;;;;;28.00;49.66;101358.06;21114318;28;20043;-82
2023/08/04 16:03:23;;;;;;;7.93;6.78;;;;;;;28.04;49.57;101361.03;21125462;28;20032;-83
2023/08/04 16:13:25;;;;;;;7.40;5.97;;;;;;;28.02;49.54;101366.16;21157960;28;20040;-82
2023/08/04 16:23:28;;;;;;;7.57;6.78;;;;;;;28.02;49.60;101369.81;21125124;28;20466;-84
2023/08/04 16:33:30;;;;;;;8.23;7.00;;;;;;;27.74;49.65;101324.09;21130963;28;20032;-86
2023/08/04 16:43:32;;;;;;;7.10;6.40;;;;;;;27.97;49.38;101350.25;21124999;28;20058;-84
2023/08/04 16:53:36;;;;;;;7.60;6.70;;;;;;;28.08;49.50;101362.06;21106183;28;20040;-83
2023/08/04 17:03:54;;;;;;;7.15;6.40;;;;;;;28.05;49.44;101376.78;21106894;28;20380;-85
2023/08/04 17:14:24;;;;;;;8.50;7.15;;;;;;;27.89;49.66;101358.59;21123614;28;20032;-82
2023/08/04 17:24:26;;;;;;;7.80;6.63;;;;;;;27.94;49.41;101350.03;21098736;28;20036;-83
2023/08/04 17:34:36;;;;;;;7.65;6.65;;;;;;;27.78;49.50;101325.13;21109626;28;20368;-86
2023/08/04 17:44:38;;;;;;;7.85;7.05;;;;;;;27.83;49.52;101339.06;21128767;28;20528;-81
2023/08/04 17:54:39;;;;;;;7.60;6.30;;;;;;;27.98;49.67;101339.81;21110026;28;20479;-86
2023/08/04 18:04:43;;;;;;;6.90;6.20;;;;;;;28.00;49.60;101332.72;21126574;28;20398;-84
2023/08/04 18:14:48;;;;;;;8.00;7.20;;;;;;;28.04;49.57;101335.72;21100316;28;20081;-82
2023/08/04 18:24:50;;;;;;;7.57;6.35;;;;;;;27.98;49.61;101311.69;21109056;28;20024;-86
2023/08/04 18:34:51;;;;;;;7.80;6.68;;;;;;;28.04;49.52;101304.78;21110205;28;20043;-84
2023/08/04 18:44:59;;;;;;;7.57;6.43;;;;;;;27.69;49.47;101231.41;21097228;28;20036;-87
2023/08/04 18:55:15;;;;;;;7.57;6.47;;;;;;;28.03;49.58;101275.81;21113222;28;20031;-85
2023/08/04 19:05:17;;;;;;;6.97;6.20;;;;;;;28.06;49.61;101260.28;21108068;28;20044;-83
2023/08/04 19:15:37;;;;;;;7.22;6.07;;;;;;;28.09;49.56;101251.22;21128480;28;20363;-86
2023/08/04 19:25:39;;;;;;;7.03;6.32;;;;;;;28.12;49.32;101247.72;21129030;28;20026;-82
2023/08/04 19:35:42;;;;;;;7.00;6.25;;;;;;;28.11;49.38;101238.47;21116675;28;20044;-85
2023/08/04 19:45:46;;;;;;;7.38;6.50;;;;;;;28.14;49.50;101220.13;21140466;28;20457;-86
2023/08/04 19:56:01;;;;;;;6.68;5.80;;;;;;;27.85;49.28;101190.50;21105477;28;20036;-86
2023/08/04 20:06:06;;;;;;;6.80;5.80;;;;;;;28.11;49.44;101243.25;21136177;28;20028;-81
2023/08/04 20:16:07;;;;;;;7.07;6.28;;;;;;;28.12;49.37;101240.13;21139712;28;20464;-85
2023/08/04 20:26:13;;;;;;;6.72;5.63;;;;;;;28.13;49.74;101240.94;21131337;28;20048;-83
2023/08/04 20:36:14;;;;;;;5.83;5.23;;;;;;;28.07;49.15;101222.56;21171854;28;20062;-82
2023/08/04 20:46:20;;;;;;;5.88;5.18;;;;;;;28.14;49.31;101222.94;21155501;28;20190;-81
2023/08/04 20:56:21;;;;;;;5.80;5.20;;;;;;;28.06;49.25;101212.47;21143692;28;20036;-80
2023/08/04 21:06:22;;;;;;;6.10;5.28;;;;;;;28.08;49.28;101202.53;21105411;28;20036;-82
2023/08/04 21:16:24;;;;;;;5.95;5.13;;;;;;;28.16;49.28;101216.97;21122555;28;20069;-80
2023/08/04 21:26:25;;;;;;;5.90;5.18;;;;;;;28.15;49.34;101204.06;21123405;28;20097;-81
2023/08/04 21:36:29;;;;;;;6.15;5.28;;;;;;;28.08;49.31;101198.88;21130296;28;20047;-84
2023/08/04 21:46:30;;;;;;;5.95;5.07;;;;;;;28.11;49.57;101198.25;21128333;28;20036;-85
2023/08/04 21:56:32;;;;;;;5.63;5.03;;;;;;;28.17;49.27;101213.00;21128459;28;20028;-84
2023/08/04 22:06:33;;;;;;;5.88;5.28;;;;;;;28.12;49.46;101217.59;21131381;28;20057;-84
2023/08/04 22:16:35;;;;;;;6.35;5.45;;;;;;;28.12;49.46;101202.72;21146052;28;20609;-84
2023/08/04 22:26:36;;;;;;;5.60;5.00;;;;;;;28.11;49.47;101192.63;21123057;28;20032;-85
2023/08/04 22:36:40;;;;;;;6.10;5.15;;;;;;;28.09;49.72;101183.69;21132971;28;20050;-86
2023/08/04 22:46:45;;;;;;;5.78;4.93;;;;;;;28.09;49.17;101195.78;21142002;28;20020;-79
2023/08/04 22:56:46;;;;;;;5.40;4.80;;;;;;;28.09;49.51;101220.25;21142067;28;20103;-83
2023/08/04 23:06:52;;;;;;;5.57;4.85;;;;;;;28.11;49.50;101220.75;21139360;28;20052;-87
2023/08/04 23:16:53;;;;;;;4.97;4.47;;;;;;;27.92;49.60;101204.13;21141946;28;20088;-84
2023/08/04 23:26:55;;;;;;;5.35;4.65;;;;;;;28.11;49.17;101223.56;21126215;28;20092;-81
2023/08/04 23:36:56;;;;;;;5.00;4.50;;;;;;;27.73;49.59;101181.84;21148644;28;20059;-79
2023/08/04 23:46:58;;;;;;;4.75;4.25;;;;;;;28.05;49.64;101236.13;21129838;28;20073;-79
2023/08/04 23:56:59;;;;;;;4.70;4.20;;;;;;;28.03;49.50;101201.84;21088779;28;20044;-82
